Date,TemperatureHighF,TemperatureAvgF,TemperatureLowF,DewpointHighF,DewpointAvgF,DewpointLowF,HumidityHigh,HumidityAvg,HumidityLow,PressureMaxIn,PressureMinIn,WindSpeedMaxMPH,WindSpeedAvgMPH,GustSpeedMaxMPH,PrecipitationSumIn
2013-3-4,74.0,61.1,0.0,0.0,0.0,0.0,61,30,18,30.05,29.97,10,4,10,0.00
2013-3-5,74.0,56.1,0.0,0.0,0.0,0.0,57,32,18,30.05,29.85,28,10,28,0.00
2013-3-6,66.0,59.7,47.0,0.0,0.0,0.0,50,30,21,29.95,29.84,36,17,36,0.00
2013-3-7,61.0,49.7,0.0,0.0,0.0,0.0,67,48,27,29.91,29.80,23,8,23,0.00
2013-3-8,45.0,39.6,0.0,0.0,0.0,0.0,94,78,60,29.89,29.72,21,5,21,0.00
2013-3-9,69.0,45.2,0.0,0.0,0.0,0.0,98,51,15,30.23,29.89,22,6,22,0.00
2013-3-10,70.0,55.0,0.0,0.0,0.0,0.0,48,22,11,30.32,30.17,14,6,14,0.00
2013-3-11,74.0,52.6,28.0,0.0,0.0,0.0,61,31,11,30.24,30.05,9,3,9,0.00
2013-3-12,79.0,56.6,31.0,0.0,0.0,0.0,56,29,11,30.18,30.06,13,4,13,0.00
2013-3-13,84.0,60.7,35.0,0.0,0.0,0.0,53,29,13,30.24,30.09,10,3,10,0.00
2013-3-14,88.0,64.8,39.0,0.0,0.0,0.0,50,28,12,30.20,30.01,13,5,13,0.00
2013-3-15,90.0,69.1,0.0,0.0,0.0,0.0,47,28,10,30.04,29.80,25,6,25,0.00
2013-3-16,67.0,63.5,60.0,0.0,0.0,0.0,39,36,34,29.87,29.85,8,4,8,0.00
2013-3-18,78.0,55.1,0.0,0.0,0.0,0.0,46,20,13,30.03,29.87,18,6,20,0.00
2013-3-19,80.0,67.3,47.0,0.0,0.0,0.0,41,25,14,30.04,29.87,17,7,18,0.00
2013-3-20,78.0,68.3,0.0,0.0,0.0,0.0,38,28,18,30.00,29.79,37,18,37,0.00
2013-3-21,80.0,61.9,41.0,0.0,0.0,0.0,50,29,13,29.90,29.68,23,7,23,0.00
2013-3-22,76.0,55.9,0.0,0.0,0.0,0.0,54,28,10,29.89,29.72,17,5,24,0.00
2013-3-23,70.0,53.2,0.0,0.0,0.0,0.0,48,24,9,30.08,29.88,15,5,20,0.00
2013-3-24,74.0,57.0,33.0,0.0,0.0,0.0,36,19,10,30.08,29.89,12,4,15,0.00
2013-3-25,79.0,58.4,0.0,0.0,0.0,0.0,35,22,11,29.99,29.80,22,5,23,0.00
2013-3-26,82.0,65.5,33.0,0.0,0.0,0.0,33,21,12,29.87,29.73,30,9,32,0.00
2013-3-27,81.0,61.0,0.0,0.0,0.0,0.0,49,30,15,29.89,29.79,23,7,25,0.00
2013-3-28,75.0,52.8,32.0,0.0,0.0,0.0,54,33,18,30.00,29.88,23,8,29,0.00
2013-3-29,82.0,63.6,37.0,0.0,0.0,0.0,52,29,11,30.11,29.98,14,4,16,0.00
2013-3-30,83.0,65.2,0.0,0.0,0.0,0.0,46,29,14,30.07,29.93,18,6,25,0.00
2013-3-31,77.0,61.1,0.0,0.0,0.0,0.0,52,39,21,29.99,29.88,29,13,35,0.00